Terminal Aerodrome Forecast
Issued by NWS

Home | Current Version | Previous Version | Text Only | Print | Product List | Glossary On
Versions: 1 2 3 4 5 6 7 8 9 10 11 12 13 14 15 16 17 18 19
000
FTUS41 KGYX 292320
TAFHIE
TAF
KHIE 292320Z 3000/3024 28003KT P6SM SKC
     FM300600 VRB03KT P6SM SKC
     FM300900 00000KT 1/2SM FG VV001
     FM301300 27005KT P6SM SCT100
     FM302100 VRB03KT P6SM BKN100 BKN250=

USA.gov is the U.S. government's official web portal to all federal, state and local government web resources and services.